sensor_id;sensor_type;location;lat;lon;timestamp;P1;durP1;ratioP1;P2;durP2;ratioP2
7158;SDS011;63175;52.374;13.132;2024-03-02T00:01:34;26.27;;;19.17;;
7158;SDS011;63175;52.374;13.132;2024-03-02T00:04:02;25.93;;;18.20;;
7158;SDS011;63175;52.374;13.132;2024-03-02T00:06:33;26.60;;;19.13;;
7158;SDS011;63175;52.374;13.132;2024-03-02T00:09:00;24.77;;;17.13;;
7158;SDS011;63175;52.374;13.132;2024-03-02T00:11:27;24.70;;;16.80;;
7158;SDS011;63175;52.374;13.132;2024-03-02T00:13:54;26.13;;;18.87;;
7158;SDS011;63175;52.374;13.132;2024-03-02T00:16:21;25.13;;;16.10;;
7158;SDS011;63175;52.374;13.132;2024-03-02T00:18:49;22.93;;;16.17;;
7158;SDS011;63175;52.374;13.132;2024-03-02T00:21:16;22.00;;;16.90;;
7158;SDS011;63175;52.374;13.132;2024-03-02T00:23:47;23.00;;;16.30;;
7158;SDS011;63175;52.374;13.132;2024-03-02T00:26:16;23.97;;;16.30;;
7158;SDS011;63175;52.374;13.132;2024-03-02T00:28:42;21.40;;;16.03;;
7158;SDS011;63175;52.374;13.132;2024-03-02T00:31:11;20.47;;;16.30;;
7158;SDS011;63175;52.374;13.132;2024-03-02T00:33:40;25.17;;;17.93;;
7158;SDS011;63175;52.374;13.132;2024-03-02T00:36:08;23.67;;;16.13;;
7158;SDS011;63175;52.374;13.132;2024-03-02T00:38:41;24.67;;;16.60;;
7158;SDS011;63175;52.374;13.132;2024-03-02T00:41:15;24.30;;;17.03;;
7158;SDS011;63175;52.374;13.132;2024-03-02T00:43:43;22.33;;;15.90;;
7158;SDS011;63175;52.374;13.132;2024-03-02T00:46:14;25.43;;;16.23;;
7158;SDS011;63175;52.374;13.132;2024-03-02T00:48:47;26.47;;;17.40;;
7158;SDS011;63175;52.374;13.132;2024-03-02T00:51:19;22.23;;;16.53;;
7158;SDS011;63175;52.374;13.132;2024-03-02T00:53:46;20.80;;;16.30;;
7158;SDS011;63175;52.374;13.132;2024-03-02T00:56:15;19.47;;;14.87;;
7158;SDS011;63175;52.374;13.132;2024-03-02T00:58:42;25.30;;;17.70;;
7158;SDS011;63175;52.374;13.132;2024-03-02T01:01:09;28.60;;;20.93;;
7158;SDS011;63175;52.374;13.132;2024-03-02T01:03:36;22.80;;;18.10;;
7158;SDS011;63175;52.374;13.132;2024-03-02T01:06:03;26.33;;;18.50;;
7158;SDS011;63175;52.374;13.132;2024-03-02T01:08:30;26.27;;;18.87;;
7158;SDS011;63175;52.374;13.132;2024-03-02T01:10:56;28.37;;;17.87;;
7158;SDS011;63175;52.374;13.132;2024-03-02T01:13:25;25.13;;;17.97;;
7158;SDS011;63175;52.374;13.132;2024-03-02T01:15:52;29.40;;;18.13;;
7158;SDS011;63175;52.374;13.132;2024-03-02T01:18:19;25.20;;;16.77;;
7158;SDS011;63175;52.374;13.132;2024-03-02T01:20:47;20.90;;;15.67;;
7158;SDS011;63175;52.374;13.132;2024-03-02T01:23:16;22.80;;;16.97;;
7158;SDS011;63175;52.374;13.132;2024-03-02T01:25:44;23.33;;;16.93;;
7158;SDS011;63175;52.374;13.132;2024-03-02T01:28:11;21.37;;;16.53;;
7158;SDS011;63175;52.374;13.132;2024-03-02T01:30:39;22.43;;;17.57;;
7158;SDS011;63175;52.374;13.132;2024-03-02T01:33:06;26.50;;;18.90;;
7158;SDS011;63175;52.374;13.132;2024-03-02T01:35:32;25.80;;;17.60;;
7158;SDS011;63175;52.374;13.132;2024-03-02T01:37:59;26.47;;;17.50;;
7158;SDS011;63175;52.374;13.132;2024-03-02T01:40:26;22.90;;;18.23;;
7158;SDS011;63175;52.374;13.132;2024-03-02T01:42:53;25.83;;;19.27;;
7158;SDS011;63175;52.374;13.132;2024-03-02T01:45:23;27.63;;;18.37;;
7158;SDS011;63175;52.374;13.132;2024-03-02T01:47:51;23.07;;;18.20;;
7158;SDS011;63175;52.374;13.132;2024-03-02T01:50:24;24.43;;;18.00;;
7158;SDS011;63175;52.374;13.132;2024-03-02T01:52:51;25.60;;;19.17;;
7158;SDS011;63175;52.374;13.132;2024-03-02T01:55:18;28.43;;;19.20;;
7158;SDS011;63175;52.374;13.132;2024-03-02T01:57:45;28.93;;;20.57;;
7158;SDS011;63175;52.374;13.132;2024-03-02T02:00:13;28.00;;;18.53;;
7158;SDS011;63175;52.374;13.132;2024-03-02T02:02:41;25.70;;;19.60;;
7158;SDS011;63175;52.374;13.132;2024-03-02T02:05:09;23.63;;;17.47;;
7158;SDS011;63175;52.374;13.132;2024-03-02T02:07:36;22.37;;;16.90;;
7158;SDS011;63175;52.374;13.132;2024-03-02T02:10:03;26.93;;;17.50;;
7158;SDS011;63175;52.374;13.132;2024-03-02T02:12:31;23.67;;;16.90;;
7158;SDS011;63175;52.374;13.132;2024-03-02T02:14:58;21.23;;;16.67;;
7158;SDS011;63175;52.374;13.132;2024-03-02T02:17:25;20.17;;;16.17;;
7158;SDS011;63175;52.374;13.132;2024-03-02T02:19:52;22.50;;;16.73;;
7158;SDS011;63175;52.374;13.132;2024-03-02T02:22:20;20.27;;;15.83;;
7158;SDS011;63175;52.374;13.132;2024-03-02T02:24:47;21.70;;;15.10;;
7158;SDS011;63175;52.374;13.132;2024-03-02T02:27:14;20.83;;;15.50;;
7158;SDS011;63175;52.374;13.132;2024-03-02T02:29:41;21.30;;;16.40;;
7158;SDS011;63175;52.374;13.132;2024-03-02T02:32:08;22.77;;;16.50;;
7158;SDS011;63175;52.374;13.132;2024-03-02T02:34:35;24.80;;;16.80;;
7158;SDS011;63175;52.374;13.132;2024-03-02T02:37:01;22.07;;;15.93;;
7158;SDS011;63175;52.374;13.132;2024-03-02T02:39:30;20.57;;;15.03;;
7158;SDS011;63175;52.374;13.132;2024-03-02T02:41:56;23.30;;;17.13;;
7158;SDS011;63175;52.374;13.132;2024-03-02T02:44:24;28.30;;;19.53;;
7158;SDS011;63175;52.374;13.132;2024-03-02T02:46:51;25.70;;;18.20;;
7158;SDS011;63175;52.374;13.132;2024-03-02T02:49:18;29.40;;;18.50;;
7158;SDS011;63175;52.374;13.132;2024-03-02T02:51:45;22.10;;;16.93;;
7158;SDS011;63175;52.374;13.132;2024-03-02T02:54:12;32.40;;;20.37;;
7158;SDS011;63175;52.374;13.132;2024-03-02T02:56:40;24.87;;;18.10;;
7158;SDS011;63175;52.374;13.132;2024-03-02T02:59:07;23.57;;;16.80;;
7158;SDS011;63175;52.374;13.132;2024-03-02T03:01:33;22.70;;;16.33;;
7158;SDS011;63175;52.374;13.132;2024-03-02T03:04:00;26.83;;;16.47;;
7158;SDS011;63175;52.374;13.132;2024-03-02T03:06:27;28.10;;;18.73;;
7158;SDS011;63175;52.374;13.132;2024-03-02T03:08:54;27.63;;;18.57;;
7158;SDS011;63175;52.374;13.132;2024-03-02T03:11:21;26.17;;;17.40;;
7158;SDS011;63175;52.374;13.132;2024-03-02T03:13:51;25.40;;;18.93;;
7158;SDS011;63175;52.374;13.132;2024-03-02T03:16:19;38.53;;;24.30;;
7158;SDS011;63175;52.374;13.132;2024-03-02T03:18:46;41.70;;;27.87;;
7158;SDS011;63175;52.374;13.132;2024-03-02T03:21:15;39.47;;;26.50;;
7158;SDS011;63175;52.374;13.132;2024-03-02T03:23:42;40.83;;;27.23;;
7158;SDS011;63175;52.374;13.132;2024-03-02T03:26:08;43.17;;;28.07;;
7158;SDS011;63175;52.374;13.132;2024-03-02T03:28:35;39.20;;;26.73;;
7158;SDS011;63175;52.374;13.132;2024-03-02T03:31:04;43.53;;;28.50;;
7158;SDS011;63175;52.374;13.132;2024-03-02T03:33:31;46.13;;;28.57;;
7158;SDS011;63175;52.374;13.132;2024-03-02T03:35:58;40.93;;;27.67;;
7158;SDS011;63175;52.374;13.132;2024-03-02T03:38:25;40.03;;;26.70;;
7158;SDS011;63175;52.374;13.132;2024-03-02T03:40:51;39.47;;;26.33;;
7158;SDS011;63175;52.374;13.132;2024-03-02T03:43:18;33.57;;;24.00;;
7158;SDS011;63175;52.374;13.132;2024-03-02T03:45:45;30.20;;;21.87;;
7158;SDS011;63175;52.374;13.132;2024-03-02T03:48:13;32.07;;;24.33;;
7158;SDS011;63175;52.374;13.132;2024-03-02T03:50:40;29.73;;;21.00;;
7158;SDS011;63175;52.374;13.132;2024-03-02T03:53:07;28.00;;;21.97;;
7158;SDS011;63175;52.374;13.132;2024-03-02T03:55:34;26.60;;;19.20;;
7158;SDS011;63175;52.374;13.132;2024-03-02T03:58:01;28.60;;;18.77;;
7158;SDS011;63175;52.374;13.132;2024-03-02T04:00:27;29.67;;;20.10;;
7158;SDS011;63175;52.374;13.132;2024-03-02T04:02:54;31.30;;;20.53;;
7158;SDS011;63175;52.374;13.132;2024-03-02T04:05:23;32.20;;;21.90;;
7158;SDS011;63175;52.374;13.132;2024-03-02T04:07:49;30.07;;;20.57;;
7158;SDS011;63175;52.374;13.132;2024-03-02T04:10:16;24.43;;;19.20;;
7158;SDS011;63175;52.374;13.132;2024-03-02T04:12:45;27.10;;;19.50;;
7158;SDS011;63175;52.374;13.132;2024-03-02T04:15:12;33.07;;;21.60;;
7158;SDS011;63175;52.374;13.132;2024-03-02T04:17:39;33.17;;;21.43;;
7158;SDS011;63175;52.374;13.132;2024-03-02T04:20:06;27.87;;;19.33;;
7158;SDS011;63175;52.374;13.132;2024-03-02T04:22:35;23.93;;;19.00;;
7158;SDS011;63175;52.374;13.132;2024-03-02T04:25:02;27.50;;;19.20;;
7158;SDS011;63175;52.374;13.132;2024-03-02T04:27:30;31.67;;;20.47;;
7158;SDS011;63175;52.374;13.132;2024-03-02T04:29:58;29.20;;;20.13;;
7158;SDS011;63175;52.374;13.132;2024-03-02T04:32:25;24.57;;;18.60;;
7158;SDS011;63175;52.374;13.132;2024-03-02T04:34:53;25.47;;;19.10;;
7158;SDS011;63175;52.374;13.132;2024-03-02T04:37:20;24.43;;;18.40;;
7158;SDS011;63175;52.374;13.132;2024-03-02T04:39:48;28.67;;;21.77;;
7158;SDS011;63175;52.374;13.132;2024-03-02T04:42:15;34.90;;;23.63;;
7158;SDS011;63175;52.374;13.132;2024-03-02T04:44:42;41.43;;;28.90;;
7158;SDS011;63175;52.374;13.132;2024-03-02T04:47:08;36.60;;;27.00;;
7158;SDS011;63175;52.374;13.132;2024-03-02T04:49:35;37.50;;;24.63;;
7158;SDS011;63175;52.374;13.132;2024-03-02T04:52:02;31.10;;;22.50;;
7158;SDS011;63175;52.374;13.132;2024-03-02T04:54:30;32.70;;;24.00;;
7158;SDS011;63175;52.374;13.132;2024-03-02T04:56:58;37.30;;;25.17;;
7158;SDS011;63175;52.374;13.132;2024-03-02T04:59:24;37.53;;;24.90;;
7158;SDS011;63175;52.374;13.132;2024-03-02T05:01:51;40.23;;;25.93;;
7158;SDS011;63175;52.374;13.132;2024-03-02T05:04:18;40.67;;;27.50;;
7158;SDS011;63175;52.374;13.132;2024-03-02T05:06:45;40.97;;;25.80;;
7158;SDS011;63175;52.374;13.132;2024-03-02T05:09:17;35.63;;;23.47;;
7158;SDS011;63175;52.374;13.132;2024-03-02T05:11:44;39.77;;;25.50;;
7158;SDS011;63175;52.374;13.132;2024-03-02T05:14:26;37.23;;;25.40;;
7158;SDS011;63175;52.374;13.132;2024-03-02T05:16:53;37.00;;;23.97;;
7158;SDS011;63175;52.374;13.132;2024-03-02T05:19:20;32.03;;;23.80;;
7158;SDS011;63175;52.374;13.132;2024-03-02T05:21:47;35.30;;;23.27;;
7158;SDS011;63175;52.374;13.132;2024-03-02T05:24:14;28.50;;;21.20;;
7158;SDS011;63175;52.374;13.132;2024-03-02T05:26:41;30.13;;;20.97;;
7158;SDS011;63175;52.374;13.132;2024-03-02T05:29:08;27.63;;;18.37;;
7158;SDS011;63175;52.374;13.132;2024-03-02T05:31:36;27.60;;;19.93;;
7158;SDS011;63175;52.374;13.132;2024-03-02T05:34:03;30.73;;;20.83;;
7158;SDS011;63175;52.374;13.132;2024-03-02T05:36:30;29.53;;;18.70;;
7158;SDS011;63175;52.374;13.132;2024-03-02T05:38:57;25.53;;;18.10;;
7158;SDS011;63175;52.374;13.132;2024-03-02T05:41:24;31.80;;;21.37;;
7158;SDS011;63175;52.374;13.132;2024-03-02T05:43:51;33.83;;;23.70;;
7158;SDS011;63175;52.374;13.132;2024-03-02T05:46:18;35.40;;;24.20;;
7158;SDS011;63175;52.374;13.132;2024-03-02T05:48:46;34.00;;;23.07;;
7158;SDS011;63175;52.374;13.132;2024-03-02T05:51:13;28.90;;;22.40;;
7158;SDS011;63175;52.374;13.132;2024-03-02T05:53:40;33.20;;;23.37;;
7158;SDS011;63175;52.374;13.132;2024-03-02T05:56:07;31.23;;;22.93;;
7158;SDS011;63175;52.374;13.132;2024-03-02T05:58:34;30.73;;;22.30;;
7158;SDS011;63175;52.374;13.132;2024-03-02T06:01:14;30.30;;;22.60;;
7158;SDS011;63175;52.374;13.132;2024-03-02T06:03:43;32.27;;;22.87;;
7158;SDS011;63175;52.374;13.132;2024-03-02T06:06:11;31.40;;;21.77;;
7158;SDS011;63175;52.374;13.132;2024-03-02T06:08:38;27.90;;;20.07;;
7158;SDS011;63175;52.374;13.132;2024-03-02T06:11:05;27.30;;;18.90;;
7158;SDS011;63175;52.374;13.132;2024-03-02T06:13:31;28.77;;;20.40;;
7158;SDS011;63175;52.374;13.132;2024-03-02T06:15:58;29.33;;;21.10;;
7158;SDS011;63175;52.374;13.132;2024-03-02T06:18:26;32.93;;;23.37;;
7158;SDS011;63175;52.374;13.132;2024-03-02T06:20:54;35.57;;;22.70;;
7158;SDS011;63175;52.374;13.132;2024-03-02T06:23:22;36.50;;;25.40;;
7158;SDS011;63175;52.374;13.132;2024-03-02T06:25:48;34.47;;;23.40;;
7158;SDS011;63175;52.374;13.132;2024-03-02T06:28:15;29.00;;;20.80;;
7158;SDS011;63175;52.374;13.132;2024-03-02T06:30:42;26.07;;;19.60;;
7158;SDS011;63175;52.374;13.132;2024-03-02T06:33:10;34.23;;;23.03;;
7158;SDS011;63175;52.374;13.132;2024-03-02T06:35:37;31.40;;;22.07;;
7158;SDS011;63175;52.374;13.132;2024-03-02T06:38:04;34.90;;;23.50;;
7158;SDS011;63175;52.374;13.132;2024-03-02T06:40:32;33.07;;;22.63;;
7158;SDS011;63175;52.374;13.132;2024-03-02T06:42:59;39.73;;;25.40;;
7158;SDS011;63175;52.374;13.132;2024-03-02T06:45:26;30.67;;;23.33;;
7158;SDS011;63175;52.374;13.132;2024-03-02T06:47:53;36.63;;;24.10;;
7158;SDS011;63175;52.374;13.132;2024-03-02T06:50:21;31.57;;;22.50;;
7158;SDS011;63175;52.374;13.132;2024-03-02T06:52:48;32.40;;;23.00;;
7158;SDS011;63175;52.374;13.132;2024-03-02T06:55:15;28.40;;;21.17;;
7158;SDS011;63175;52.374;13.132;2024-03-02T06:57:43;33.23;;;23.30;;
7158;SDS011;63175;52.374;13.132;2024-03-02T07:00:10;30.10;;;21.80;;
7158;SDS011;63175;52.374;13.132;2024-03-02T07:02:38;36.63;;;23.43;;
7158;SDS011;63175;52.374;13.132;2024-03-02T07:05:06;29.33;;;21.10;;
7158;SDS011;63175;52.374;13.132;2024-03-02T07:07:34;34.37;;;22.30;;
7158;SDS011;63175;52.374;13.132;2024-03-02T07:10:01;33.93;;;24.60;;
7158;SDS011;63175;52.374;13.132;2024-03-02T07:12:29;37.13;;;25.57;;
7158;SDS011;63175;52.374;13.132;2024-03-02T07:14:57;34.27;;;23.47;;
7158;SDS011;63175;52.374;13.132;2024-03-02T07:17:41;38.03;;;23.57;;
7158;SDS011;63175;52.374;13.132;2024-03-02T07:20:09;37.90;;;23.80;;
7158;SDS011;63175;52.374;13.132;2024-03-02T07:22:37;32.57;;;22.23;;
7158;SDS011;63175;52.374;13.132;2024-03-02T07:25:05;30.73;;;20.37;;
7158;SDS011;63175;52.374;13.132;2024-03-02T07:27:32;48.17;;;29.07;;
7158;SDS011;63175;52.374;13.132;2024-03-02T07:30:01;35.53;;;24.97;;
7158;SDS011;63175;52.374;13.132;2024-03-02T07:32:28;33.57;;;22.83;;
7158;SDS011;63175;52.374;13.132;2024-03-02T07:34:55;41.70;;;26.70;;
7158;SDS011;63175;52.374;13.132;2024-03-02T07:37:22;34.23;;;24.30;;
7158;SDS011;63175;52.374;13.132;2024-03-02T07:39:49;34.20;;;24.73;;
7158;SDS011;63175;52.374;13.132;2024-03-02T07:42:16;34.53;;;24.17;;
7158;SDS011;63175;52.374;13.132;2024-03-02T07:44:43;41.40;;;25.37;;
7158;SDS011;63175;52.374;13.132;2024-03-02T07:47:11;41.50;;;26.03;;
7158;SDS011;63175;52.374;13.132;2024-03-02T07:49:38;40.17;;;26.80;;
7158;SDS011;63175;52.374;13.132;2024-03-02T07:52:05;40.73;;;25.53;;
7158;SDS011;63175;52.374;13.132;2024-03-02T07:54:32;36.60;;;24.00;;
7158;SDS011;63175;52.374;13.132;2024-03-02T07:56:59;40.10;;;24.60;;
7158;SDS011;63175;52.374;13.132;2024-03-02T07:59:26;42.60;;;26.93;;
7158;SDS011;63175;52.374;13.132;2024-03-02T08:01:53;43.07;;;26.07;;
7158;SDS011;63175;52.374;13.132;2024-03-02T08:04:22;43.93;;;25.37;;
7158;SDS011;63175;52.374;13.132;2024-03-02T08:06:49;42.57;;;25.07;;
7158;SDS011;63175;52.374;13.132;2024-03-02T08:09:16;38.60;;;25.60;;
7158;SDS011;63175;52.374;13.132;2024-03-02T08:11:43;33.13;;;23.73;;
7158;SDS011;63175;52.374;13.132;2024-03-02T08:14:10;35.00;;;24.10;;
7158;SDS011;63175;52.374;13.132;2024-03-02T08:16:37;36.63;;;22.67;;
7158;SDS011;63175;52.374;13.132;2024-03-02T08:19:03;34.40;;;22.43;;
7158;SDS011;63175;52.374;13.132;2024-03-02T08:21:32;33.60;;;23.10;;
7158;SDS011;63175;52.374;13.132;2024-03-02T08:24:00;33.60;;;23.70;;
7158;SDS011;63175;52.374;13.132;2024-03-02T08:26:27;34.37;;;24.13;;
7158;SDS011;63175;52.374;13.132;2024-03-02T08:28:56;33.60;;;23.23;;
7158;SDS011;63175;52.374;13.132;2024-03-02T08:31:23;37.83;;;26.43;;
7158;SDS011;63175;52.374;13.132;2024-03-02T08:33:50;36.90;;;24.50;;
7158;SDS011;63175;52.374;13.132;2024-03-02T08:36:17;38.37;;;24.30;;
7158;SDS011;63175;52.374;13.132;2024-03-02T08:38:46;48.37;;;27.97;;
7158;SDS011;63175;52.374;13.132;2024-03-02T08:41:14;43.97;;;27.33;;
7158;SDS011;63175;52.374;13.132;2024-03-02T08:43:41;42.03;;;26.40;;
7158;SDS011;63175;52.374;13.132;2024-03-02T08:46:09;49.73;;;28.93;;
7158;SDS011;63175;52.374;13.132;2024-03-02T08:48:35;38.63;;;26.90;;
7158;SDS011;63175;52.374;13.132;2024-03-02T08:51:02;42.10;;;26.50;;
7158;SDS011;63175;52.374;13.132;2024-03-02T08:53:32;43.90;;;27.37;;
7158;SDS011;63175;52.374;13.132;2024-03-02T08:56:00;48.30;;;27.50;;
7158;SDS011;63175;52.374;13.132;2024-03-02T08:58:30;42.47;;;27.50;;
7158;SDS011;63175;52.374;13.132;2024-03-02T09:00:57;44.50;;;27.33;;
7158;SDS011;63175;52.374;13.132;2024-03-02T09:03:24;42.67;;;25.40;;
7158;SDS011;63175;52.374;13.132;2024-03-02T09:05:51;38.57;;;24.50;;
7158;SDS011;63175;52.374;13.132;2024-03-02T09:08:17;47.07;;;25.67;;
7158;SDS011;63175;52.374;13.132;2024-03-02T09:10:44;38.97;;;25.90;;
7158;SDS011;63175;52.374;13.132;2024-03-02T09:13:12;40.30;;;27.63;;
7158;SDS011;63175;52.374;13.132;2024-03-02T09:15:39;35.97;;;25.77;;
7158;SDS011;63175;52.374;13.132;2024-03-02T09:18:06;40.27;;;25.23;;
7158;SDS011;63175;52.374;13.132;2024-03-02T09:20:33;37.23;;;23.77;;
7158;SDS011;63175;52.374;13.132;2024-03-02T09:23:00;38.97;;;26.40;;
7158;SDS011;63175;52.374;13.132;2024-03-02T09:25:27;39.33;;;25.00;;
7158;SDS011;63175;52.374;13.132;2024-03-02T09:27:54;38.80;;;23.97;;
7158;SDS011;63175;52.374;13.132;2024-03-02T09:30:22;42.90;;;26.10;;
7158;SDS011;63175;52.374;13.132;2024-03-02T09:32:49;39.80;;;26.17;;
7158;SDS011;63175;52.374;13.132;2024-03-02T09:35:15;36.97;;;25.20;;
7158;SDS011;63175;52.374;13.132;2024-03-02T09:37:43;36.27;;;24.10;;
7158;SDS011;63175;52.374;13.132;2024-03-02T09:40:10;39.83;;;25.03;;
7158;SDS011;63175;52.374;13.132;2024-03-02T09:42:37;34.83;;;23.53;;
7158;SDS011;63175;52.374;13.132;2024-03-02T09:45:05;37.23;;;25.70;;
7158;SDS011;63175;52.374;13.132;2024-03-02T09:47:34;35.23;;;23.30;;
7158;SDS011;63175;52.374;13.132;2024-03-02T09:50:01;33.63;;;22.17;;
7158;SDS011;63175;52.374;13.132;2024-03-02T09:52:28;29.30;;;20.77;;
7158;SDS011;63175;52.374;13.132;2024-03-02T09:54:57;33.53;;;21.20;;
7158;SDS011;63175;52.374;13.132;2024-03-02T09:57:24;31.43;;;20.20;;
7158;SDS011;63175;52.374;13.132;2024-03-02T09:59:50;24.47;;;17.60;;
7158;SDS011;63175;52.374;13.132;2024-03-02T10:02:17;29.80;;;20.33;;
7158;SDS011;63175;52.374;13.132;2024-03-02T10:04:46;32.60;;;22.50;;
7158;SDS011;63175;52.374;13.132;2024-03-02T10:07:16;32.97;;;22.40;;
7158;SDS011;63175;52.374;13.132;2024-03-02T10:09:44;34.20;;;22.63;;
7158;SDS011;63175;52.374;13.132;2024-03-02T10:12:12;30.70;;;21.30;;
7158;SDS011;63175;52.374;13.132;2024-03-02T10:14:41;30.60;;;21.73;;
7158;SDS011;63175;52.374;13.132;2024-03-02T10:17:08;27.83;;;19.00;;
7158;SDS011;63175;52.374;13.132;2024-03-02T10:19:36;29.57;;;20.57;;
7158;SDS011;63175;52.374;13.132;2024-03-02T10:22:05;28.03;;;19.83;;
7158;SDS011;63175;52.374;13.132;2024-03-02T10:24:36;25.33;;;18.53;;
7158;SDS011;63175;52.374;13.132;2024-03-02T10:27:08;30.60;;;20.90;;
7158;SDS011;63175;52.374;13.132;2024-03-02T10:29:38;25.87;;;18.77;;
7158;SDS011;63175;52.374;13.132;2024-03-02T10:32:08;29.10;;;20.43;;
7158;SDS011;63175;52.374;13.132;2024-03-02T10:34:36;31.73;;;20.37;;
7158;SDS011;63175;52.374;13.132;2024-03-02T10:37:04;27.50;;;19.53;;
7158;SDS011;63175;52.374;13.132;2024-03-02T10:39:32;31.63;;;20.20;;
7158;SDS011;63175;52.374;13.132;2024-03-02T10:42:02;29.57;;;20.43;;
7158;SDS011;63175;52.374;13.132;2024-03-02T10:44:30;30.23;;;21.10;;
7158;SDS011;63175;52.374;13.132;2024-03-02T10:46:58;31.03;;;20.70;;
7158;SDS011;63175;52.374;13.132;2024-03-02T10:49:29;28.27;;;20.00;;
7158;SDS011;63175;52.374;13.132;2024-03-02T10:51:56;32.83;;;21.30;;
7158;SDS011;63175;52.374;13.132;2024-03-02T10:54:25;32.10;;;21.70;;
7158;SDS011;63175;52.374;13.132;2024-03-02T10:56:54;31.77;;;20.37;;
7158;SDS011;63175;52.374;13.132;2024-03-02T10:59:26;35.03;;;20.63;;
7158;SDS011;63175;52.374;13.132;2024-03-02T11:01:55;29.83;;;20.93;;
7158;SDS011;63175;52.374;13.132;2024-03-02T11:04:24;28.43;;;19.07;;
7158;SDS011;63175;52.374;13.132;2024-03-02T11:06:51;32.83;;;20.67;;
7158;SDS011;63175;52.374;13.132;2024-03-02T11:09:21;29.70;;;18.70;;
7158;SDS011;63175;52.374;13.132;2024-03-02T11:11:54;25.60;;;17.80;;
7158;SDS011;63175;52.374;13.132;2024-03-02T11:14:24;26.67;;;18.80;;
7158;SDS011;63175;52.374;13.132;2024-03-02T11:16:51;29.17;;;19.20;;
7158;SDS011;63175;52.374;13.132;2024-03-02T11:19:19;28.50;;;19.77;;
7158;SDS011;63175;52.374;13.132;2024-03-02T11:21:47;25.33;;;17.57;;
7158;SDS011;63175;52.374;13.132;2024-03-02T11:24:30;22.20;;;16.00;;
7158;SDS011;63175;52.374;13.132;2024-03-02T11:27:00;19.80;;;15.63;;
7158;SDS011;63175;52.374;13.132;2024-03-02T11:29:42;22.50;;;15.90;;
7158;SDS011;63175;52.374;13.132;2024-03-02T11:32:13;27.30;;;18.73;;
7158;SDS011;63175;52.374;13.132;2024-03-02T11:34:42;27.23;;;18.43;;
7158;SDS011;63175;52.374;13.132;2024-03-02T11:37:11;21.57;;;16.70;;
7158;SDS011;63175;52.374;13.132;2024-03-02T11:39:39;23.63;;;15.87;;
7158;SDS011;63175;52.374;13.132;2024-03-02T11:42:07;25.27;;;17.33;;
7158;SDS011;63175;52.374;13.132;2024-03-02T11:44:35;26.73;;;16.93;;
7158;SDS011;63175;52.374;13.132;2024-03-02T11:47:05;28.07;;;18.77;;
7158;SDS011;63175;52.374;13.132;2024-03-02T11:49:36;27.50;;;18.97;;
7158;SDS011;63175;52.374;13.132;2024-03-02T11:52:05;27.93;;;17.33;;
7158;SDS011;63175;52.374;13.132;2024-03-02T11:54:33;24.23;;;16.00;;
7158;SDS011;63175;52.374;13.132;2024-03-02T11:57:01;22.70;;;15.90;;
7158;SDS011;63175;52.374;13.132;2024-03-02T11:59:30;29.10;;;18.10;;
7158;SDS011;63175;52.374;13.132;2024-03-02T12:01:57;26.17;;;18.00;;
7158;SDS011;63175;52.374;13.132;2024-03-02T12:04:26;23.70;;;16.90;;
7158;SDS011;63175;52.374;13.132;2024-03-02T12:06:54;23.87;;;16.83;;
7158;SDS011;63175;52.374;13.132;2024-03-02T12:09:21;20.77;;;15.70;;
7158;SDS011;63175;52.374;13.132;2024-03-02T12:12:00;21.77;;;15.83;;
7158;SDS011;63175;52.374;13.132;2024-03-02T12:14:30;24.60;;;16.13;;
7158;SDS011;63175;52.374;13.132;2024-03-02T12:16:57;19.67;;;14.40;;
7158;SDS011;63175;52.374;13.132;2024-03-02T12:19:24;21.53;;;14.30;;
7158;SDS011;63175;52.374;13.132;2024-03-02T12:21:52;17.80;;;13.13;;
7158;SDS011;63175;52.374;13.132;2024-03-02T12:24:19;22.70;;;15.77;;
7158;SDS011;63175;52.374;13.132;2024-03-02T12:26:47;22.77;;;15.57;;
7158;SDS011;63175;52.374;13.132;2024-03-02T12:29:15;18.70;;;14.80;;
7158;SDS011;63175;52.374;13.132;2024-03-02T12:31:43;16.33;;;13.27;;
7158;SDS011;63175;52.374;13.132;2024-03-02T12:34:11;18.70;;;13.80;;
7158;SDS011;63175;52.374;13.132;2024-03-02T12:36:39;16.80;;;12.47;;
7158;SDS011;63175;52.374;13.132;2024-03-02T12:39:07;22.07;;;13.67;;
7158;SDS011;63175;52.374;13.132;2024-03-02T12:41:35;16.07;;;12.47;;
7158;SDS011;63175;52.374;13.132;2024-03-02T12:44:03;13.10;;;10.53;;
7158;SDS011;63175;52.374;13.132;2024-03-02T12:46:30;15.37;;;12.40;;
7158;SDS011;63175;52.374;13.132;2024-03-02T12:48:58;15.70;;;12.50;;
7158;SDS011;63175;52.374;13.132;2024-03-02T12:51:33;19.20;;;12.97;;
7158;SDS011;63175;52.374;13.132;2024-03-02T12:54:01;15.90;;;12.40;;
7158;SDS011;63175;52.374;13.132;2024-03-02T12:56:28;18.50;;;11.53;;
7158;SDS011;63175;52.374;13.132;2024-03-02T12:58:56;11.97;;;10.03;;
7158;SDS011;63175;52.374;13.132;2024-03-02T13:01:23;15.30;;;10.70;;
7158;SDS011;63175;52.374;13.132;2024-03-02T13:03:50;16.30;;;11.07;;
7158;SDS011;63175;52.374;13.132;2024-03-02T13:06:18;15.10;;;11.20;;
7158;SDS011;63175;52.374;13.132;2024-03-02T13:08:46;16.70;;;12.20;;
7158;SDS011;63175;52.374;13.132;2024-03-02T13:11:13;14.87;;;11.30;;
7158;SDS011;63175;52.374;13.132;2024-03-02T13:13:41;18.30;;;11.50;;
7158;SDS011;63175;52.374;13.132;2024-03-02T13:16:08;20.50;;;13.03;;
7158;SDS011;63175;52.374;13.132;2024-03-02T13:18:36;16.60;;;11.87;;
7158;SDS011;63175;52.374;13.132;2024-03-02T13:21:04;17.50;;;13.63;;
7158;SDS011;63175;52.374;13.132;2024-03-02T13:23:32;21.80;;;15.20;;
7158;SDS011;63175;52.374;13.132;2024-03-02T13:25:59;18.10;;;14.10;;
7158;SDS011;63175;52.374;13.132;2024-03-02T13:28:26;15.00;;;12.10;;
7158;SDS011;63175;52.374;13.132;2024-03-02T13:30:53;19.57;;;11.97;;
7158;SDS011;63175;52.374;13.132;2024-03-02T13:33:20;16.17;;;13.17;;
7158;SDS011;63175;52.374;13.132;2024-03-02T13:35:48;17.63;;;10.97;;
7158;SDS011;63175;52.374;13.132;2024-03-02T13:38:16;17.00;;;12.23;;
7158;SDS011;63175;52.374;13.132;2024-03-02T13:40:44;19.77;;;14.00;;
7158;SDS011;63175;52.374;13.132;2024-03-02T13:43:12;23.50;;;12.27;;
7158;SDS011;63175;52.374;13.132;2024-03-02T13:45:39;17.47;;;11.40;;
7158;SDS011;63175;52.374;13.132;2024-03-02T13:48:06;14.97;;;9.80;;
7158;SDS011;63175;52.374;13.132;2024-03-02T13:50:33;13.20;;;10.40;;
7158;SDS011;63175;52.374;13.132;2024-03-02T13:53:00;15.20;;;10.17;;
7158;SDS011;63175;52.374;13.132;2024-03-02T13:55:28;16.87;;;12.40;;
7158;SDS011;63175;52.374;13.132;2024-03-02T13:57:56;18.50;;;12.23;;
7158;SDS011;63175;52.374;13.132;2024-03-02T14:00:23;15.30;;;10.20;;
7158;SDS011;63175;52.374;13.132;2024-03-02T14:02:50;14.63;;;9.20;;
7158;SDS011;63175;52.374;13.132;2024-03-02T14:05:17;10.77;;;8.77;;
7158;SDS011;63175;52.374;13.132;2024-03-02T14:07:44;12.50;;;8.70;;
7158;SDS011;63175;52.374;13.132;2024-03-02T14:10:11;12.70;;;8.30;;
7158;SDS011;63175;52.374;13.132;2024-03-02T14:12:38;10.50;;;7.77;;
7158;SDS011;63175;52.374;13.132;2024-03-02T14:15:08;15.67;;;10.67;;
7158;SDS011;63175;52.374;13.132;2024-03-02T14:17:35;13.97;;;9.50;;
7158;SDS011;63175;52.374;13.132;2024-03-02T14:20:02;14.97;;;11.50;;
7158;SDS011;63175;52.374;13.132;2024-03-02T14:22:30;14.93;;;11.10;;
7158;SDS011;63175;52.374;13.132;2024-03-02T14:24:58;13.73;;;9.80;;